sensor_id;sensor_type;location;lat;lon;timestamp;pressure;altitude;pressure_sealevel;temperature;humidity
61292;BME280;47165;42.664;23.368;2024-01-25T00:01:17;95595.91;;;5.92;55.91
61292;BME280;47165;42.664;23.368;2024-01-25T00:03:43;95588.94;;;5.94;55.01
61292;BME280;47165;42.664;23.368;2024-01-25T00:06:09;95588.94;;;5.94;55.31
61292;BME280;47165;42.664;23.368;2024-01-25T00:08:35;95586.31;;;5.97;54.88
61292;BME280;47165;42.664;23.368;2024-01-25T00:11:04;95581.13;;;5.97;54.43
61292;BME280;47165;42.664;23.368;2024-01-25T00:13:30;95570.59;;;6.01;54.54
61292;BME280;47165;42.664;23.368;2024-01-25T00:15:56;95545.53;;;6.02;54.07
61292;BME280;47165;42.664;23.368;2024-01-25T00:18:21;95523.97;;;6.00;53.46
61292;BME280;47165;42.664;23.368;2024-01-25T00:20:47;95503.84;;;6.08;53.69
61292;BME280;47165;42.664;23.368;2024-01-25T00:23:12;95483.34;;;6.00;53.08
61292;BME280;47165;42.664;23.368;2024-01-25T00:25:38;95479.84;;;6.03;52.67
61292;BME280;47165;42.664;23.368;2024-01-25T00:28:03;95477.47;;;5.95;52.70
61292;BME280;47165;42.664;23.368;2024-01-25T00:30:29;95467.50;;;5.81;52.94
61292;BME280;47165;42.664;23.368;2024-01-25T00:32:56;95481.88;;;5.92;53.38
61292;BME280;47165;42.664;23.368;2024-01-25T00:35:23;95486.69;;;6.04;53.40
61292;BME280;47165;42.664;23.368;2024-01-25T00:37:49;95497.06;;;6.04;53.98
61292;BME280;47165;42.664;23.368;2024-01-25T00:40:14;95487.63;;;6.03;54.21
61292;BME280;47165;42.664;23.368;2024-01-25T00:42:42;95469.16;;;6.12;53.85
61292;BME280;47165;42.664;23.368;2024-01-25T00:45:09;95466.59;;;6.11;53.64
61292;BME280;47165;42.664;23.368;2024-01-25T00:47:37;95453.72;;;6.09;53.40
61292;BME280;47165;42.664;23.368;2024-01-25T00:50:04;95460.19;;;5.96;53.48
61292;BME280;47165;42.664;23.368;2024-01-25T00:52:30;95452.69;;;5.87;53.04
61292;BME280;47165;42.664;23.368;2024-01-25T00:54:56;95449.53;;;6.05;53.06
61292;BME280;47165;42.664;23.368;2024-01-25T00:57:21;95458.19;;;6.04;52.91
61292;BME280;47165;42.664;23.368;2024-01-25T00:59:47;95475.00;;;6.19;52.75
61292;BME280;47165;42.664;23.368;2024-01-25T01:02:14;95489.72;;;6.18;52.97
61292;BME280;47165;42.664;23.368;2024-01-25T01:04:42;95495.00;;;6.15;53.42
61292;BME280;47165;42.664;23.368;2024-01-25T01:07:09;95500.28;;;6.12;53.94
61292;BME280;47165;42.664;23.368;2024-01-25T01:09:34;95498.47;;;6.14;53.91
61292;BME280;47165;42.664;23.368;2024-01-25T01:12:00;95482.91;;;6.14;53.78
61292;BME280;47165;42.664;23.368;2024-01-25T01:14:25;95469.13;;;6.14;53.57
61292;BME280;47165;42.664;23.368;2024-01-25T01:16:51;95462.78;;;6.22;52.81
61292;BME280;47165;42.664;23.368;2024-01-25T01:19:17;95441.84;;;6.29;52.55
61292;BME280;47165;42.664;23.368;2024-01-25T01:21:42;95435.09;;;6.23;51.96
61292;BME280;47165;42.664;23.368;2024-01-25T01:24:12;95426.72;;;6.15;51.74
61292;BME280;47165;42.664;23.368;2024-01-25T01:26:38;95405.16;;;6.14;51.67
61292;BME280;47165;42.664;23.368;2024-01-25T01:29:04;95404.41;;;6.11;51.35
61292;BME280;47165;42.664;23.368;2024-01-25T01:31:30;95418.72;;;6.22;51.60
61292;BME280;47165;42.664;23.368;2024-01-25T01:33:56;95418.47;;;6.30;51.75
61292;BME280;47165;42.664;23.368;2024-01-25T01:36:23;95428.00;;;6.30;52.40
61292;BME280;47165;42.664;23.368;2024-01-25T01:38:48;95420.09;;;6.33;52.74
61292;BME280;47165;42.664;23.368;2024-01-25T01:41:14;95412.25;;;6.34;52.85
61292;BME280;47165;42.664;23.368;2024-01-25T01:43:40;95408.75;;;6.35;52.61
61292;BME280;47165;42.664;23.368;2024-01-25T01:46:20;95414.50;;;6.45;52.23
61292;BME280;47165;42.664;23.368;2024-01-25T01:48:52;95398.03;;;6.46;52.40
61292;BME280;47165;42.664;23.368;2024-01-25T01:51:17;95398.19;;;6.41;52.87
61292;BME280;47165;42.664;23.368;2024-01-25T01:53:43;95390.41;;;6.41;52.60
61292;BME280;47165;42.664;23.368;2024-01-25T01:56:09;95388.66;;;6.42;52.33
61292;BME280;47165;42.664;23.368;2024-01-25T01:58:35;95386.00;;;6.43;51.90
61292;BME280;47165;42.664;23.368;2024-01-25T02:03:30;95377.44;;;6.41;52.29
61292;BME280;47165;42.664;23.368;2024-01-25T02:05:56;95381.69;;;6.44;52.37
61292;BME280;47165;42.664;23.368;2024-01-25T02:08:30;95379.97;;;6.43;52.58
61292;BME280;47165;42.664;23.368;2024-01-25T02:10:56;95384.19;;;6.45;52.36
61292;BME280;47165;42.664;23.368;2024-01-25T02:13:21;95378.19;;;6.45;52.40
61292;BME280;47165;42.664;23.368;2024-01-25T02:15:47;95373.09;;;6.42;52.48
61292;BME280;47165;42.664;23.368;2024-01-25T02:18:13;95382.56;;;6.43;52.52
61292;BME280;47165;42.664;23.368;2024-01-25T02:20:38;95379.00;;;6.45;52.86
61292;BME280;47165;42.664;23.368;2024-01-25T02:23:04;95381.59;;;6.45;52.37
61292;BME280;47165;42.664;23.368;2024-01-25T02:25:29;95386.88;;;6.44;52.89
61292;BME280;47165;42.664;23.368;2024-01-25T02:27:55;95385.06;;;6.46;52.93
61292;BME280;47165;42.664;23.368;2024-01-25T02:30:21;95372.91;;;6.48;52.47
61292;BME280;47165;42.664;23.368;2024-01-25T02:32:46;95360.94;;;6.44;52.82
61292;BME280;47165;42.664;23.368;2024-01-25T02:35:12;95358.16;;;6.49;52.53
61292;BME280;47165;42.664;23.368;2024-01-25T02:37:37;95353.03;;;6.47;52.56
61292;BME280;47165;42.664;23.368;2024-01-25T02:40:04;95359.84;;;6.50;52.63
61292;BME280;47165;42.664;23.368;2024-01-25T02:42:29;95369.50;;;6.46;52.90
61292;BME280;47165;42.664;23.368;2024-01-25T02:44:55;95367.75;;;6.47;52.91
61292;BME280;47165;42.664;23.368;2024-01-25T02:47:20;95372.19;;;6.43;53.15
61292;BME280;47165;42.664;23.368;2024-01-25T02:49:46;95350.47;;;6.45;52.90
61292;BME280;47165;42.664;23.368;2024-01-25T02:52:11;95352.63;;;6.34;52.87
61292;BME280;47165;42.664;23.368;2024-01-25T02:54:37;95349.84;;;6.39;52.90
61292;BME280;47165;42.664;23.368;2024-01-25T02:57:03;95356.84;;;6.37;53.06
61292;BME280;47165;42.664;23.368;2024-01-25T02:59:29;95357.00;;;6.32;53.29
61292;BME280;47165;42.664;23.368;2024-01-25T03:01:54;95356.00;;;6.36;53.03
61292;BME280;47165;42.664;23.368;2024-01-25T03:04:20;95359.56;;;6.34;53.19
61292;BME280;47165;42.664;23.368;2024-01-25T03:06:45;95366.44;;;6.35;53.10
61292;BME280;47165;42.664;23.368;2024-01-25T03:09:11;95363.75;;;6.38;53.08
61292;BME280;47165;42.664;23.368;2024-01-25T03:11:37;95347.25;;;6.39;53.11
61292;BME280;47165;42.664;23.368;2024-01-25T03:14:03;95351.78;;;6.34;53.13
61292;BME280;47165;42.664;23.368;2024-01-25T03:16:29;95356.19;;;6.32;53.36
61292;BME280;47165;42.664;23.368;2024-01-25T03:18:54;95359.88;;;6.24;54.99
61292;BME280;47165;42.664;23.368;2024-01-25T03:21:20;95348.47;;;6.29;57.97
61292;BME280;47165;42.664;23.368;2024-01-25T03:23:45;95331.28;;;6.51;58.60
61292;BME280;47165;42.664;23.368;2024-01-25T03:26:11;95348.38;;;6.80;58.66
61292;BME280;47165;42.664;23.368;2024-01-25T03:28:37;95343.84;;;7.09;58.47
61292;BME280;47165;42.664;23.368;2024-01-25T03:31:05;95354.03;;;7.37;57.86
61292;BME280;47165;42.664;23.368;2024-01-25T03:33:30;95338.41;;;7.61;56.75
61292;BME280;47165;42.664;23.368;2024-01-25T03:36:04;95354.38;;;7.94;56.05
61292;BME280;47165;42.664;23.368;2024-01-25T03:38:31;95380.50;;;8.12;55.38
61292;BME280;47165;42.664;23.368;2024-01-25T03:40:57;95343.53;;;8.25;54.93
61292;BME280;47165;42.664;23.368;2024-01-25T03:43:24;95321.69;;;8.30;54.81
61292;BME280;47165;42.664;23.368;2024-01-25T03:45:51;95303.41;;;8.52;54.46
61292;BME280;47165;42.664;23.368;2024-01-25T03:48:17;95304.25;;;8.52;53.96
61292;BME280;47165;42.664;23.368;2024-01-25T03:50:42;95315.94;;;8.62;53.75
61292;BME280;47165;42.664;23.368;2024-01-25T03:53:08;95311.75;;;8.79;53.01
61292;BME280;47165;42.664;23.368;2024-01-25T03:55:34;95297.41;;;8.89;52.48
61292;BME280;47165;42.664;23.368;2024-01-25T03:57:59;95299.72;;;8.95;51.90
61292;BME280;47165;42.664;23.368;2024-01-25T04:00:25;95280.16;;;9.05;51.56
61292;BME280;47165;42.664;23.368;2024-01-25T04:02:51;95298.09;;;9.12;51.38
61292;BME280;47165;42.664;23.368;2024-01-25T04:05:17;95290.06;;;9.16;51.17
61292;BME280;47165;42.664;23.368;2024-01-25T04:07:43;95284.78;;;9.18;50.33
61292;BME280;47165;42.664;23.368;2024-01-25T04:10:09;95285.28;;;9.26;50.20
61292;BME280;47165;42.664;23.368;2024-01-25T04:12:34;95283.16;;;9.34;50.23
61292;BME280;47165;42.664;23.368;2024-01-25T04:15:02;95274.44;;;9.35;49.89
61292;BME280;47165;42.664;23.368;2024-01-25T04:17:28;95275.63;;;9.28;49.74
61292;BME280;47165;42.664;23.368;2024-01-25T04:19:53;95271.53;;;9.41;49.52
61292;BME280;47165;42.664;23.368;2024-01-25T04:22:19;95273.06;;;9.45;49.62
61292;BME280;47165;42.664;23.368;2024-01-25T04:24:44;95264.97;;;9.33;49.21
61292;BME280;47165;42.664;23.368;2024-01-25T04:27:13;95275.28;;;9.36;49.20
61292;BME280;47165;42.664;23.368;2024-01-25T04:29:40;95283.56;;;9.44;49.41
61292;BME280;47165;42.664;23.368;2024-01-25T04:32:07;95292.69;;;9.53;49.22
61292;BME280;47165;42.664;23.368;2024-01-25T04:34:33;95284.94;;;9.51;48.59
61292;BME280;47165;42.664;23.368;2024-01-25T04:36:58;95267.56;;;9.52;48.31
61292;BME280;47165;42.664;23.368;2024-01-25T04:39:23;95268.94;;;9.59;48.18
61292;BME280;47165;42.664;23.368;2024-01-25T04:41:50;95275.75;;;9.61;48.40
61292;BME280;47165;42.664;23.368;2024-01-25T04:44:15;95291.97;;;9.68;48.18
61292;BME280;47165;42.664;23.368;2024-01-25T04:46:42;95289.25;;;9.70;47.60
61292;BME280;47165;42.664;23.368;2024-01-25T04:49:07;95307.75;;;9.65;47.82
61292;BME280;47165;42.664;23.368;2024-01-25T04:51:33;95303.22;;;9.69;47.50
61292;BME280;47165;42.664;23.368;2024-01-25T04:53:58;95314.56;;;9.67;47.24
61292;BME280;47165;42.664;23.368;2024-01-25T04:56:24;95304.44;;;9.61;47.04
61292;BME280;47165;42.664;23.368;2024-01-25T04:58:50;95309.94;;;9.55;46.99
61292;BME280;47165;42.664;23.368;2024-01-25T05:01:15;95310.03;;;9.54;46.91
61292;BME280;47165;42.664;23.368;2024-01-25T05:03:41;95317.22;;;9.49;46.53
61292;BME280;47165;42.664;23.368;2024-01-25T05:06:06;95326.47;;;9.37;46.77
61292;BME280;47165;42.664;23.368;2024-01-25T05:08:32;95351.06;;;9.31;46.96
61292;BME280;47165;42.664;23.368;2024-01-25T05:10:57;95325.75;;;9.14;47.26
61292;BME280;47165;42.664;23.368;2024-01-25T05:13:23;95344.16;;;9.11;47.13
61292;BME280;47165;42.664;23.368;2024-01-25T05:15:48;95318.50;;;8.83;47.28
61292;BME280;47165;42.664;23.368;2024-01-25T05:18:14;95355.38;;;8.74;47.56
61292;BME280;47165;42.664;23.368;2024-01-25T05:20:39;95364.50;;;8.63;47.82
61292;BME280;47165;42.664;23.368;2024-01-25T05:23:05;95375.81;;;8.62;47.79
61292;BME280;47165;42.664;23.368;2024-01-25T05:25:31;95376.59;;;8.64;47.63
61292;BME280;47165;42.664;23.368;2024-01-25T05:27:57;95379.53;;;8.57;47.59
61292;BME280;47165;42.664;23.368;2024-01-25T05:30:27;95358.25;;;8.68;47.57
61292;BME280;47165;42.664;23.368;2024-01-25T05:32:52;95374.06;;;8.63;47.43
61292;BME280;47165;42.664;23.368;2024-01-25T05:35:20;95374.97;;;8.62;47.74
61292;BME280;47165;42.664;23.368;2024-01-25T05:37:46;95371.13;;;8.71;47.35
61292;BME280;47165;42.664;23.368;2024-01-25T05:40:12;95385.06;;;8.70;47.59
61292;BME280;47165;42.664;23.368;2024-01-25T05:42:38;95373.66;;;8.72;47.61
61292;BME280;47165;42.664;23.368;2024-01-25T05:45:05;95389.81;;;8.80;47.36
61292;BME280;47165;42.664;23.368;2024-01-25T05:47:32;95382.56;;;8.87;47.21
61292;BME280;47165;42.664;23.368;2024-01-25T05:49:58;95387.50;;;8.93;47.28
61292;BME280;47165;42.664;23.368;2024-01-25T05:52:23;95395.69;;;9.04;47.38
61292;BME280;47165;42.664;23.368;2024-01-25T05:54:52;95403.22;;;9.11;46.82
61292;BME280;47165;42.664;23.368;2024-01-25T05:57:17;95400.63;;;9.11;46.68
61292;BME280;47165;42.664;23.368;2024-01-25T05:59:44;95384.28;;;9.07;46.38
61292;BME280;47165;42.664;23.368;2024-01-25T06:02:09;95394.13;;;9.00;46.14
61292;BME280;47165;42.664;23.368;2024-01-25T06:04:35;95398.44;;;8.81;46.43
61292;BME280;47165;42.664;23.368;2024-01-25T06:07:00;95401.03;;;9.01;46.65
61292;BME280;47165;42.664;23.368;2024-01-25T06:09:26;95416.91;;;8.95;46.02
61292;BME280;47165;42.664;23.368;2024-01-25T06:11:52;95407.94;;;9.02;46.17
61292;BME280;47165;42.664;23.368;2024-01-25T06:14:17;95414.53;;;9.10;46.06
61292;BME280;47165;42.664;23.368;2024-01-25T06:16:43;95405.84;;;9.11;46.28
61292;BME280;47165;42.664;23.368;2024-01-25T06:19:10;95410.06;;;9.13;46.09
61292;BME280;47165;42.664;23.368;2024-01-25T06:21:36;95415.59;;;9.05;46.06
61292;BME280;47165;42.664;23.368;2024-01-25T06:24:03;95408.34;;;9.12;46.16
61292;BME280;47165;42.664;23.368;2024-01-25T06:26:29;95412.44;;;9.18;46.17
61292;BME280;47165;42.664;23.368;2024-01-25T06:28:54;95403.31;;;9.28;46.21
61292;BME280;47165;42.664;23.368;2024-01-25T06:31:21;95407.69;;;9.27;46.17
61292;BME280;47165;42.664;23.368;2024-01-25T06:33:46;95408.22;;;9.34;46.10
61292;BME280;47165;42.664;23.368;2024-01-25T06:36:15;95414.66;;;9.27;45.94
61292;BME280;47165;42.664;23.368;2024-01-25T06:38:41;95406.72;;;9.10;46.25
61292;BME280;47165;42.664;23.368;2024-01-25T06:41:08;95396.69;;;9.21;46.26
61292;BME280;47165;42.664;23.368;2024-01-25T06:43:33;95398.41;;;9.01;46.53
61292;BME280;47165;42.664;23.368;2024-01-25T06:45:59;95412.88;;;9.09;46.57
61292;BME280;47165;42.664;23.368;2024-01-25T06:48:24;95409.63;;;9.03;46.69
61292;BME280;47165;42.664;23.368;2024-01-25T06:50:50;95406.72;;;9.10;46.56
61292;BME280;47165;42.664;23.368;2024-01-25T06:53:16;95402.72;;;9.02;46.60
61292;BME280;47165;42.664;23.368;2024-01-25T06:55:42;95409.94;;;8.96;46.78
61292;BME280;47165;42.664;23.368;2024-01-25T06:58:08;95392.28;;;8.63;47.73
61292;BME280;47165;42.664;23.368;2024-01-25T07:00:33;95392.94;;;8.68;47.49
61292;BME280;47165;42.664;23.368;2024-01-25T07:02:58;95399.44;;;8.78;47.46
61292;BME280;47165;42.664;23.368;2024-01-25T07:05:24;95392.09;;;8.68;47.53
61292;BME280;47165;42.664;23.368;2024-01-25T07:07:50;95382.09;;;8.77;47.43
61292;BME280;47165;42.664;23.368;2024-01-25T07:10:15;95405.63;;;8.76;47.62
61292;BME280;47165;42.664;23.368;2024-01-25T07:12:41;95413.72;;;8.49;47.70
61292;BME280;47165;42.664;23.368;2024-01-25T07:15:06;95407.31;;;8.56;47.59
61292;BME280;47165;42.664;23.368;2024-01-25T07:17:33;95390.13;;;8.73;47.46
61292;BME280;47165;42.664;23.368;2024-01-25T07:19:59;95383.78;;;8.59;47.69
61292;BME280;47165;42.664;23.368;2024-01-25T07:22:25;95371.84;;;8.74;47.33
61292;BME280;47165;42.664;23.368;2024-01-25T07:24:50;95383.84;;;8.97;46.74
61292;BME280;47165;42.664;23.368;2024-01-25T07:27:15;95399.19;;;9.03;46.62
61292;BME280;47165;42.664;23.368;2024-01-25T07:29:44;95381.22;;;8.78;46.82
61292;BME280;47165;42.664;23.368;2024-01-25T07:32:11;95386.47;;;8.77;46.92
61292;BME280;47165;42.664;23.368;2024-01-25T07:34:36;95389.47;;;8.88;47.05
61292;BME280;47165;42.664;23.368;2024-01-25T07:37:03;95406.63;;;9.13;46.48
61292;BME280;47165;42.664;23.368;2024-01-25T07:39:29;95402.25;;;9.13;46.46
61292;BME280;47165;42.664;23.368;2024-01-25T07:41:54;95432.31;;;9.20;46.29
61292;BME280;47165;42.664;23.368;2024-01-25T07:44:20;95412.13;;;8.86;46.24
61292;BME280;47165;42.664;23.368;2024-01-25T07:46:45;95410.81;;;8.96;46.34
61292;BME280;47165;42.664;23.368;2024-01-25T07:49:12;95427.44;;;9.13;46.98
61292;BME280;47165;42.664;23.368;2024-01-25T07:51:37;95429.63;;;9.22;46.93
61292;BME280;47165;42.664;23.368;2024-01-25T07:54:03;95434.16;;;9.37;46.32
61292;BME280;47165;42.664;23.368;2024-01-25T07:56:29;95418.38;;;9.21;46.93
61292;BME280;47165;42.664;23.368;2024-01-25T07:58:55;95436.84;;;9.36;46.43
61292;BME280;47165;42.664;23.368;2024-01-25T08:01:20;95423.09;;;9.32;46.11
61292;BME280;47165;42.664;23.368;2024-01-25T08:03:46;95435.28;;;9.51;45.70
61292;BME280;47165;42.664;23.368;2024-01-25T08:06:14;95440.09;;;9.60;45.06
61292;BME280;47165;42.664;23.368;2024-01-25T08:08:40;95452.47;;;9.36;45.50
61292;BME280;47165;42.664;23.368;2024-01-25T08:11:06;95433.31;;;9.37;45.10
61292;BME280;47165;42.664;23.368;2024-01-25T08:13:31;95428.53;;;9.46;44.86
61292;BME280;47165;42.664;23.368;2024-01-25T08:15:57;95435.69;;;9.22;45.22
61292;BME280;47165;42.664;23.368;2024-01-25T08:18:22;95431.19;;;9.26;45.06
61292;BME280;47165;42.664;23.368;2024-01-25T08:20:49;95431.34;;;9.23;44.72
61292;BME280;47165;42.664;23.368;2024-01-25T08:23:15;95438.66;;;9.34;44.81
61292;BME280;47165;42.664;23.368;2024-01-25T08:25:41;95439.50;;;9.34;44.63
61292;BME280;47165;42.664;23.368;2024-01-25T08:30:35;95432.63;;;9.52;44.15
61292;BME280;47165;42.664;23.368;2024-01-25T08:33:00;95443.94;;;9.51;44.10
61292;BME280;47165;42.664;23.368;2024-01-25T08:35:25;95449.09;;;9.53;43.98
61292;BME280;47165;42.664;23.368;2024-01-25T08:37:51;95438.06;;;9.48;43.74
61292;BME280;47165;42.664;23.368;2024-01-25T08:40:17;95432.00;;;9.66;43.55
61292;BME280;47165;42.664;23.368;2024-01-25T08:42:43;95438.53;;;9.56;43.55
61292;BME280;47165;42.664;23.368;2024-01-25T08:45:08;95433.59;;;9.50;43.22
61292;BME280;47165;42.664;23.368;2024-01-25T08:47:35;95447.91;;;9.60;43.50
61292;BME280;47165;42.664;23.368;2024-01-25T08:50:01;95441.47;;;9.67;43.20
61292;BME280;47165;42.664;23.368;2024-01-25T08:52:26;95466.38;;;9.74;42.80
61292;BME280;47165;42.664;23.368;2024-01-25T08:54:52;95447.56;;;9.86;42.77
61292;BME280;47165;42.664;23.368;2024-01-25T08:57:17;95451.41;;;9.59;43.10
61292;BME280;47165;42.664;23.368;2024-01-25T08:59:43;95455.56;;;9.63;43.26
61292;BME280;47165;42.664;23.368;2024-01-25T09:02:09;95456.34;;;9.65;43.06
61292;BME280;47165;42.664;23.368;2024-01-25T09:04:34;95442.19;;;9.90;43.37
61292;BME280;47165;42.664;23.368;2024-01-25T09:07:00;95449.09;;;9.91;43.33
61292;BME280;47165;42.664;23.368;2024-01-25T09:09:25;95443.03;;;9.71;43.22
61292;BME280;47165;42.664;23.368;2024-01-25T09:11:51;95435.56;;;9.63;43.25
61292;BME280;47165;42.664;23.368;2024-01-25T09:14:17;95444.59;;;9.75;43.26
61292;BME280;47165;42.664;23.368;2024-01-25T09:16:42;95437.59;;;9.76;43.51
61292;BME280;47165;42.664;23.368;2024-01-25T09:19:08;95435.44;;;9.66;43.62
61292;BME280;47165;42.664;23.368;2024-01-25T09:21:34;95446.28;;;9.76;43.49
61292;BME280;47165;42.664;23.368;2024-01-25T09:24:00;95442.81;;;9.95;43.45
61292;BME280;47165;42.664;23.368;2024-01-25T09:26:26;95439.59;;;9.71;43.67
61292;BME280;47165;42.664;23.368;2024-01-25T09:28:51;95444.28;;;9.81;43.58
61292;BME280;47165;42.664;23.368;2024-01-25T09:31:18;95430.38;;;10.00;43.38
61292;BME280;47165;42.664;23.368;2024-01-25T09:33:43;95430.03;;;10.07;43.34
61292;BME280;47165;42.664;23.368;2024-01-25T09:36:09;95407.38;;;9.91;42.91
61292;BME280;47165;42.664;23.368;2024-01-25T09:38:34;95418.84;;;9.67;43.54
61292;BME280;47165;42.664;23.368;2024-01-25T09:41:00;95427.94;;;9.78;43.46
61292;BME280;47165;42.664;23.368;2024-01-25T09:43:27;95408.78;;;9.79;43.40
61292;BME280;47165;42.664;23.368;2024-01-25T09:45:54;95416.38;;;9.83;43.68
61292;BME280;47165;42.664;23.368;2024-01-25T09:48:20;95407.38;;;10.08;43.31
61292;BME280;47165;42.664;23.368;2024-01-25T09:50:47;95406.47;;;10.26;42.84
61292;BME280;47165;42.664;23.368;2024-01-25T09:53:23;95388.41;;;10.41;42.59
61292;BME280;47165;42.664;23.368;2024-01-25T09:56:11;95404.53;;;10.49;42.41
61292;BME280;47165;42.664;23.368;2024-01-25T09:58:39;95403.47;;;10.17;42.47
61292;BME280;47165;42.664;23.368;2024-01-25T10:01:08;95400.66;;;10.21;42.87
61292;BME280;47165;42.664;23.368;2024-01-25T10:03:34;95389.91;;;10.27;42.58
61292;BME280;47165;42.664;23.368;2024-01-25T10:06:00;95395.69;;;10.34;42.48
61292;BME280;47165;42.664;23.368;2024-01-25T10:08:26;95387.09;;;10.32;42.61
61292;BME280;47165;42.664;23.368;2024-01-25T10:10:51;95394.09;;;10.49;42.36
61292;BME280;47165;42.664;23.368;2024-01-25T10:13:19;95368.19;;;10.62;42.39
61292;BME280;47165;42.664;23.368;2024-01-25T10:15:46;95371.25;;;10.70;42.31
61292;BME280;47165;42.664;23.368;2024-01-25T10:18:13;95366.56;;;10.77;42.14
61292;BME280;47165;42.664;23.368;2024-01-25T10:20:39;95354.72;;;10.87;41.96
61292;BME280;47165;42.664;23.368;2024-01-25T10:23:08;95345.06;;;10.72;41.98
61292;BME280;47165;42.664;23.368;2024-01-25T10:25:36;95358.44;;;10.65;42.10
61292;BME280;47165;42.664;23.368;2024-01-25T10:28:06;95356.19;;;10.75;42.26
61292;BME280;47165;42.664;23.368;2024-01-25T10:30:33;95350.03;;;10.76;42.20
61292;BME280;47165;42.664;23.368;2024-01-25T10:33:00;95362.13;;;10.79;42.31
61292;BME280;47165;42.664;23.368;2024-01-25T10:35:27;95351.06;;;10.74;42.36
61292;BME280;47165;42.664;23.368;2024-01-25T10:37:53;95355.31;;;10.92;42.72
61292;BME280;47165;42.664;23.368;2024-01-25T10:40:19;95349.28;;;11.07;42.35
61292;BME280;47165;42.664;23.368;2024-01-25T10:42:45;95339.41;;;11.13;41.85
61292;BME280;47165;42.664;23.368;2024-01-25T10:45:11;95364.13;;;11.23;41.79
61292;BME280;47165;42.664;23.368;2024-01-25T10:47:37;95345.25;;;11.18;41.61
61292;BME280;47165;42.664;23.368;2024-01-25T10:50:07;95349.63;;;11.33;41.78
61292;BME280;47165;42.664;23.368;2024-01-25T10:52:35;95344.59;;;11.30;41.51
61292;BME280;47165;42.664;23.368;2024-01-25T10:55:01;95312.59;;;11.09;41.72
61292;BME280;47165;42.664;23.368;2024-01-25T10:57:26;95335.28;;;11.08;41.84
61292;BME280;47165;42.664;23.368;2024-01-25T10:59:59;95331.75;;;11.25;41.71
61292;BME280;47165;42.664;23.368;2024-01-25T11:02:26;95331.69;;;11.43;41.53
61292;BME280;47165;42.664;23.368;2024-01-25T11:04:55;95338.50;;;11.61;41.15
61292;BME280;47165;42.664;23.368;2024-01-25T11:07:20;95335.78;;;11.79;41.16
61292;BME280;47165;42.664;23.368;2024-01-25T11:09:51;95331.31;;;11.97;40.46
61292;BME280;47165;42.664;23.368;2024-01-25T11:12:18;95317.16;;;12.15;40.04
61292;BME280;47165;42.664;23.368;2024-01-25T11:14:43;95305.28;;;12.10;39.31
61292;BME280;47165;42.664;23.368;2024-01-25T11:17:19;95293.63;;;11.53;39.62
61292;BME280;47165;42.664;23.368;2024-01-25T11:19:48;95313.19;;;11.62;39.73
61292;BME280;47165;42.664;23.368;2024-01-25T11:22:16;95297.00;;;11.71;39.95
61292;BME280;47165;42.664;23.368;2024-01-25T11:24:43;95288.22;;;11.72;39.43
61292;BME280;47165;42.664;23.368;2024-01-25T11:27:11;95285.88;;;11.52;39.51
61292;BME280;47165;42.664;23.368;2024-01-25T11:29:38;95298.25;;;11.64;39.58
61292;BME280;47165;42.664;23.368;2024-01-25T11:32:05;95290.75;;;11.58;39.47
61292;BME280;47165;42.664;23.368;2024-01-25T11:34:30;95286.03;;;11.64;39.61
61292;BME280;47165;42.664;23.368;2024-01-25T11:36:57;95289.72;;;11.60;39.42
61292;BME280;47165;42.664;23.368;2024-01-25T11:39:25;95278.16;;;11.64;39.26
61292;BME280;47165;42.664;23.368;2024-01-25T11:41:51;95270.66;;;11.58;39.14
61292;BME280;47165;42.664;23.368;2024-01-25T11:44:17;95291.28;;;11.48;39.15
61292;BME280;47165;42.664;23.368;2024-01-25T11:49:16;95277.63;;;10.96;39.67
61292;BME280;47165;42.664;23.368;2024-01-25T11:51:41;95282.19;;;10.59;39.97
61292;BME280;47165;42.664;23.368;2024-01-25T11:54:08;95279.66;;;10.57;40.58
61292;BME280;47165;42.664;23.368;2024-01-25T11:56:37;95275.94;;;10.79;40.34
61292;BME280;47165;42.664;23.368;2024-01-25T11:59:07;95271.13;;;10.87;40.57
61292;BME280;47165;42.664;23.368;2024-01-25T12:01:32;95268.66;;;10.84;40.30
61292;BME280;47165;42.664;23.368;2024-01-25T12:04:01;95275.75;;;10.82;40.39
61292;BME280;47165;42.664;23.368;2024-01-25T12:06:27;95286.81;;;10.87;40.36
61292;BME280;47165;42.664;23.368;2024-01-25T12:08:53;95289.91;;;10.78;40.66
61292;BME280;47165;42.664;23.368;2024-01-25T12:11:18;95298.94;;;10.88;40.46
61292;BME280;47165;42.664;23.368;2024-01-25T12:13:45;95293.34;;;10.62;40.72
61292;BME280;47165;42.664;23.368;2024-01-25T12:16:12;95278.81;;;10.57;41.18
61292;BME280;47165;42.664;23.368;2024-01-25T12:18:40;95277.34;;;10.69;41.37
61292;BME280;47165;42.664;23.368;2024-01-25T12:21:06;95273.63;;;10.73;41.15
61292;BME280;47165;42.664;23.368;2024-01-25T12:23:37;95284.59;;;10.79;40.82
61292;BME280;47165;42.664;23.368;2024-01-25T12:26:07;95268.34;;;10.90;40.57
61292;BME280;47165;42.664;23.368;2024-01-25T12:28:33;95269.16;;;10.91;40.33
61292;BME280;47165;42.664;23.368;2024-01-25T12:31:00;95253.84;;;11.00;40.18
61292;BME280;47165;42.664;23.368;2024-01-25T12:33:27;95244.25;;;11.17;40.04
61292;BME280;47165;42.664;23.368;2024-01-25T12:35:53;95251.06;;;11.35;39.45
61292;BME280;47165;42.664;23.368;2024-01-25T12:38:22;95228.69;;;11.45;38.61
61292;BME280;47165;42.664;23.368;2024-01-25T12:40:48;95236.09;;;11.53;38.61
61292;BME280;47165;42.664;23.368;2024-01-25T12:43:15;95221.09;;;11.57;38.07
61292;BME280;47165;42.664;23.368;2024-01-25T12:45:42;95208.84;;;11.87;37.90
61292;BME280;47165;42.664;23.368;2024-01-25T12:48:08;95226.50;;;12.14;37.08
61292;BME280;47165;42.664;23.368;2024-01-25T12:50:37;95207.25;;;12.30;36.73
61292;BME280;47165;42.664;23.368;2024-01-25T12:53:03;95200.50;;;12.40;36.76
61292;BME280;47165;42.664;23.368;2024-01-25T12:55:30;95209.69;;;12.33;36.60
61292;BME280;47165;42.664;23.368;2024-01-25T12:57:59;95186.13;;;12.33;36.65
61292;BME280;47165;42.664;23.368;2024-01-25T13:00:24;95198.66;;;12.42;36.54